createdAt,value
2023-05-18T00:00:01.962Z,7.70
2023-05-18T00:02:30.549Z,7.70
2023-05-18T00:05:03.280Z,7.70
2023-05-18T00:07:34.191Z,7.70
2023-05-18T00:10:02.433Z,7.70
2023-05-18T00:12:30.799Z,7.70
2023-05-18T00:15:00.311Z,7.60
2023-05-18T00:17:28.396Z,7.70
2023-05-18T00:19:58.637Z,7.60
2023-05-18T00:22:26.690Z,7.60
2023-05-18T00:24:54.637Z,7.60
2023-05-18T00:27:22.638Z,7.50
2023-05-18T00:29:51.214Z,7.60
2023-05-18T00:32:20.569Z,7.60
2023-05-18T00:34:48.616Z,7.60
2023-05-18T00:37:17.901Z,7.60
2023-05-18T00:39:46.136Z,7.60
2023-05-18T00:42:14.221Z,7.60
2023-05-18T00:44:42.290Z,7.60
2023-05-18T00:47:11.781Z,7.60
2023-05-18T00:49:42.018Z,7.50
2023-05-18T00:52:10.130Z,7.50
2023-05-18T00:54:38.177Z,7.50
2023-05-18T00:57:07.426Z,7.50
2023-05-18T00:59:35.559Z,7.50
2023-05-18T01:02:04.210Z,7.50
2023-05-18T01:04:32.847Z,7.50
2023-05-18T01:07:06.755Z,7.40
2023-05-18T01:09:40.471Z,7.40
2023-05-18T01:12:18.428Z,7.40
2023-05-18T01:14:52.107Z,7.40
2023-05-18T01:17:33.634Z,7.30
2023-05-18T01:20:20.359Z,7.30
2023-05-18T01:23:10.337Z,7.30
2023-05-18T01:25:49.556Z,7.30
2023-05-18T01:28:21.460Z,7.30
2023-05-18T01:30:50.994Z,7.30
2023-05-18T01:33:19.057Z,7.30
2023-05-18T01:35:48.567Z,7.30
2023-05-18T01:38:18.782Z,7.30
2023-05-18T01:40:53.692Z,7.20
2023-05-18T01:43:28.999Z,7.20
2023-05-18T01:46:00.017Z,7.30
2023-05-18T01:48:28.438Z,7.20
2023-05-18T01:50:59.552Z,7.20
2023-05-18T01:53:35.338Z,7.20
2023-05-18T01:56:08.073Z,7.20
2023-05-18T01:58:38.346Z,7.20
2023-05-18T02:01:06.939Z,7.20
2023-05-18T02:03:35.130Z,7.20
2023-05-18T02:06:03.611Z,7.20
2023-05-18T02:08:31.614Z,7.20
2023-05-18T02:11:02.739Z,7.20
2023-05-18T02:13:30.796Z,7.20
2023-05-18T02:16:00.373Z,7.20
2023-05-18T02:18:29.189Z,7.20
2023-05-18T02:21:00.174Z,7.20
2023-05-18T02:23:28.524Z,7.20
2023-05-18T02:25:57.288Z,7.20
2023-05-18T02:28:25.320Z,7.20
2023-05-18T02:30:53.432Z,7.20
2023-05-18T02:33:26.210Z,7.20
2023-05-18T02:35:54.759Z,7.20
2023-05-18T02:38:22.776Z,7.20
2023-05-18T02:40:50.814Z,7.20
2023-05-18T02:43:18.813Z,7.20
2023-05-18T02:45:46.830Z,7.20
2023-05-18T02:48:14.809Z,7.20
2023-05-18T02:50:45.993Z,7.20
2023-05-18T02:53:13.986Z,7.20
2023-05-18T02:55:43.543Z,7.10
2023-05-18T02:58:13.645Z,7.10
2023-05-18T03:00:42.107Z,7.10
2023-05-18T03:03:15.747Z,7.10
2023-05-18T03:05:45.310Z,7.10
2023-05-18T03:08:14.307Z,7.10
2023-05-18T03:10:42.405Z,7.10
2023-05-18T03:13:10.600Z,7.10
2023-05-18T03:15:39.474Z,7.10
2023-05-18T03:18:07.846Z,7.10
2023-05-18T03:20:37.898Z,7.10
2023-05-18T03:23:07.847Z,7.10
2023-05-18T03:25:37.258Z,7.10
2023-05-18T03:28:06.011Z,7.10
2023-05-18T03:30:34.321Z,7.10
2023-05-18T03:33:02.913Z,7.10
2023-05-18T03:35:31.278Z,7.00
2023-05-18T03:37:59.502Z,7.00
2023-05-18T03:40:29.243Z,7.00
2023-05-18T03:42:57.247Z,7.00
2023-05-18T03:45:25.613Z,7.00
2023-05-18T03:47:53.643Z,7.00
2023-05-18T03:50:21.902Z,6.90
2023-05-18T03:52:52.912Z,6.90
2023-05-18T03:55:22.124Z,6.90
2023-05-18T03:57:51.632Z,6.90
2023-05-18T04:00:20.531Z,6.80
2023-05-18T04:02:51.831Z,6.80
2023-05-18T04:05:20.662Z,6.70
2023-05-18T04:07:50.075Z,6.80
2023-05-18T04:10:21.365Z,6.80
2023-05-18T04:12:53.853Z,6.80
2023-05-18T04:15:21.882Z,6.80
2023-05-18T04:17:51.495Z,6.90
2023-05-18T04:20:19.594Z,6.90
2023-05-18T04:22:48.935Z,6.90
2023-05-18T04:25:17.926Z,6.90
2023-05-18T04:27:46.958Z,6.90
2023-05-18T04:30:18.837Z,6.90
2023-05-18T04:32:47.194Z,7.00
2023-05-18T04:35:15.398Z,7.00
2023-05-18T04:37:43.558Z,7.00
2023-05-18T04:40:13.860Z,7.00
2023-05-18T04:42:45.510Z,7.00
2023-05-18T04:45:15.890Z,7.00
2023-05-18T04:47:46.640Z,7.00
2023-05-18T04:50:16.159Z,7.00
2023-05-18T04:52:48.009Z,7.00
2023-05-18T04:55:20.057Z,7.00
2023-05-18T04:57:48.161Z,7.00
2023-05-18T05:00:17.951Z,7.00
2023-05-18T05:02:47.689Z,7.00
2023-05-18T05:05:15.866Z,7.00
2023-05-18T05:07:43.899Z,7.00
2023-05-18T05:10:12.260Z,7.10
2023-05-18T05:12:40.610Z,7.10
2023-05-18T05:15:09.913Z,7.20
2023-05-18T05:17:38.153Z,7.30
2023-05-18T05:20:08.958Z,7.40
2023-05-18T05:22:37.047Z,7.50
2023-05-18T05:25:06.349Z,7.50
2023-05-18T05:27:34.709Z,7.60
2023-05-18T05:30:02.740Z,7.70
2023-05-18T05:32:30.950Z,7.70
2023-05-18T05:34:59.028Z,7.70
2023-05-18T05:37:28.378Z,7.70
2023-05-18T05:39:56.660Z,7.70
2023-05-18T05:42:25.621Z,7.70
2023-05-18T05:44:53.703Z,7.60
2023-05-18T05:47:21.775Z,7.60
2023-05-18T05:49:49.828Z,7.70
2023-05-18T05:52:17.878Z,7.80
2023-05-18T05:54:47.583Z,7.90
2023-05-18T05:57:15.598Z,8.00
2023-05-18T05:59:43.576Z,8.10
2023-05-18T06:02:12.860Z,8.10
2023-05-18T06:04:41.862Z,8.20
2023-05-18T06:07:12.881Z,8.30
2023-05-18T06:09:41.316Z,8.40
2023-05-18T06:12:12.294Z,8.50
2023-05-18T06:14:44.013Z,8.70
2023-05-18T06:17:12.131Z,8.80
2023-05-18T06:19:40.366Z,8.90
2023-05-18T06:22:08.359Z,9.00
2023-05-18T06:24:43.465Z,9.10
2023-05-18T06:27:13.192Z,9.10
2023-05-18T06:29:49.562Z,9.20
2023-05-18T06:32:17.797Z,9.30
2023-05-18T06:34:55.780Z,9.40
2023-05-18T06:37:24.773Z,9.50
2023-05-18T06:39:55.439Z,9.60
2023-05-18T06:42:39.636Z,9.70
2023-05-18T06:45:09.107Z,9.70
2023-05-18T06:47:37.247Z,9.80
2023-05-18T06:50:08.042Z,9.80
2023-05-18T06:52:36.070Z,9.90
2023-05-18T06:55:06.238Z,10.00
2023-05-18T06:57:35.705Z,9.90
2023-05-18T07:00:07.285Z,9.80
2023-05-18T07:02:35.374Z,9.70
2023-05-18T07:05:05.610Z,9.60
2023-05-18T07:07:34.233Z,9.50
2023-05-18T07:10:02.783Z,9.50
2023-05-18T07:12:31.038Z,9.50
2023-05-18T07:15:00.449Z,9.50
2023-05-18T07:17:29.827Z,9.50
2023-05-18T07:19:59.259Z,9.40
2023-05-18T07:22:33.645Z,9.40
2023-05-18T07:25:03.795Z,9.50
2023-05-18T07:27:34.364Z,9.40
2023-05-18T07:30:04.037Z,9.40
2023-05-18T07:32:35.743Z,9.40
2023-05-18T07:35:04.016Z,9.40
2023-05-18T07:37:33.511Z,9.50
2023-05-18T07:40:03.849Z,9.40
2023-05-18T07:42:33.922Z,9.30
2023-05-18T07:45:06.429Z,9.40
2023-05-18T07:47:39.434Z,9.40
2023-05-18T07:50:11.245Z,9.40
2023-05-18T07:52:58.277Z,9.50
2023-05-18T07:55:27.912Z,9.50
2023-05-18T07:57:56.376Z,9.50
2023-05-18T08:00:30.384Z,9.50
2023-05-18T08:03:02.701Z,9.50
2023-05-18T08:05:33.435Z,9.50
2023-05-18T08:08:07.238Z,9.50
2023-05-18T08:10:37.131Z,9.50
2023-05-18T08:13:12.240Z,9.50
2023-05-18T08:15:44.531Z,9.60
2023-05-18T08:18:13.915Z,9.70
2023-05-18T08:20:44.738Z,9.80
2023-05-18T08:23:20.130Z,9.70
2023-05-18T08:25:48.199Z,9.60
2023-05-18T08:28:18.256Z,9.60
2023-05-18T08:30:48.099Z,9.60
2023-05-18T08:33:16.194Z,9.70
2023-05-18T08:35:47.693Z,9.70
2023-05-18T08:38:16.803Z,9.80
2023-05-18T08:40:50.923Z,9.80
2023-05-18T08:43:29.498Z,9.90
2023-05-18T08:46:06.232Z,10.00
2023-05-18T08:48:35.032Z,10.00
2023-05-18T08:51:06.519Z,10.00
2023-05-18T08:53:35.083Z,10.00
2023-05-18T08:56:03.607Z,10.00
2023-05-18T08:58:36.554Z,10.10
2023-05-18T09:01:06.335Z,10.10
2023-05-18T09:03:35.099Z,10.20
2023-05-18T09:06:05.059Z,10.20
2023-05-18T09:08:34.085Z,10.20
2023-05-18T09:11:03.791Z,10.10
2023-05-18T09:13:33.469Z,10.20
2023-05-18T09:16:01.617Z,10.30
2023-05-18T09:18:31.177Z,10.40
2023-05-18T09:20:59.241Z,10.40
2023-05-18T09:23:29.058Z,10.50
2023-05-18T09:25:58.047Z,10.60
2023-05-18T09:28:34.282Z,10.70
2023-05-18T09:31:02.395Z,10.70
2023-05-18T09:33:36.658Z,10.60
2023-05-18T09:36:06.656Z,10.60
2023-05-18T09:38:40.710Z,10.70
2023-05-18T09:41:12.649Z,10.70
2023-05-18T09:43:41.184Z,10.80
2023-05-18T09:46:11.501Z,10.80
2023-05-18T09:48:44.066Z,11.00
2023-05-18T09:51:16.409Z,11.10
2023-05-18T09:53:49.767Z,11.20
2023-05-18T09:56:19.463Z,11.20
2023-05-18T09:58:47.899Z,11.20
2023-05-18T10:01:17.383Z,11.20
2023-05-18T10:03:48.538Z,11.20
2023-05-18T10:06:20.078Z,11.30
2023-05-18T10:08:49.160Z,11.30
2023-05-18T10:11:20.294Z,11.30
2023-05-18T10:13:48.362Z,11.40
2023-05-18T10:16:16.951Z,11.40
2023-05-18T10:18:48.262Z,11.40
2023-05-18T10:21:19.061Z,11.50
2023-05-18T10:23:59.124Z,11.50
2023-05-18T10:26:32.784Z,11.60
2023-05-18T10:29:02.809Z,11.70
2023-05-18T10:31:32.285Z,11.70
2023-05-18T10:34:06.061Z,11.70
2023-05-18T10:36:36.469Z,11.70
2023-05-18T10:39:06.211Z,11.70
2023-05-18T10:41:37.823Z,11.70
2023-05-18T10:44:07.439Z,11.60
2023-05-18T10:46:39.346Z,11.60
2023-05-18T10:49:13.253Z,11.60
2023-05-18T10:51:43.632Z,11.60
2023-05-18T10:54:14.432Z,11.60
2023-05-18T10:56:44.809Z,11.50
2023-05-18T10:59:14.195Z,11.60
2023-05-18T11:01:43.790Z,11.60
2023-05-18T11:04:13.615Z,11.80
2023-05-18T11:06:41.917Z,11.80
2023-05-18T11:09:22.642Z,11.90
2023-05-18T11:11:55.924Z,11.90
2023-05-18T11:14:28.300Z,11.90
2023-05-18T11:17:17.035Z,11.90
2023-05-18T11:20:15.604Z,12.00
2023-05-18T11:22:49.944Z,12.00
2023-05-18T11:25:40.160Z,12.00
2023-05-18T11:28:10.187Z,12.20
2023-05-18T11:30:50.171Z,12.20
2023-05-18T11:33:24.298Z,12.20
2023-05-18T11:36:12.138Z,12.30
2023-05-18T11:38:51.766Z,12.30
2023-05-18T11:41:35.679Z,12.40
2023-05-18T11:44:19.139Z,12.50
2023-05-18T11:47:02.708Z,12.50
2023-05-18T11:49:35.364Z,12.50
2023-05-18T11:52:17.069Z,12.50
2023-05-18T11:54:47.141Z,12.60
2023-05-18T11:57:18.912Z,12.60
2023-05-18T11:59:49.866Z,12.60
2023-05-18T12:02:23.128Z,12.70
2023-05-18T12:04:53.970Z,12.60
2023-05-18T12:07:25.170Z,12.60
2023-05-18T12:09:53.189Z,12.70
2023-05-18T12:12:24.426Z,12.70
2023-05-18T12:14:58.323Z,12.60
2023-05-18T12:17:39.417Z,12.70
2023-05-18T12:20:09.888Z,12.60
2023-05-18T12:22:40.137Z,12.60
2023-05-18T12:25:10.114Z,12.80
2023-05-18T12:27:40.584Z,13.00
2023-05-18T12:30:11.943Z,13.10
2023-05-18T12:32:40.215Z,13.10
2023-05-18T12:35:09.548Z,13.10
2023-05-18T12:37:45.798Z,13.10
2023-05-18T12:40:16.357Z,13.10
2023-05-18T12:42:53.681Z,13.20
2023-05-18T12:45:28.146Z,13.20
2023-05-18T12:47:57.953Z,13.30
2023-05-18T12:50:27.361Z,13.30
2023-05-18T12:52:57.811Z,13.30
2023-05-18T12:55:26.563Z,13.30
2023-05-18T12:58:03.079Z,13.30
2023-05-18T13:00:36.488Z,13.30
2023-05-18T13:03:11.627Z,13.40
2023-05-18T13:05:42.450Z,13.40
2023-05-18T13:08:21.493Z,13.50
2023-05-18T13:11:01.178Z,13.50
2023-05-18T13:13:30.241Z,13.50
2023-05-18T13:15:59.581Z,13.60
2023-05-18T13:18:28.705Z,13.70
2023-05-18T13:20:58.605Z,13.70
2023-05-18T13:23:29.993Z,13.70
2023-05-18T13:25:58.930Z,13.70
2023-05-18T13:28:29.467Z,13.70
2023-05-18T13:30:58.192Z,13.60
2023-05-18T13:33:27.016Z,13.60
2023-05-18T13:35:55.588Z,13.70
2023-05-18T13:38:23.720Z,13.80
2023-05-18T13:40:53.041Z,13.80
2023-05-18T13:43:21.031Z,14.00
2023-05-18T13:45:51.281Z,14.10
2023-05-18T13:48:19.430Z,14.20
2023-05-18T13:50:47.484Z,14.20
2023-05-18T13:53:15.763Z,14.30
2023-05-18T13:55:45.185Z,14.30
2023-05-18T13:58:15.015Z,14.30
2023-05-18T14:00:43.804Z,14.30
2023-05-18T14:03:12.326Z,14.40
2023-05-18T14:05:40.384Z,14.50
2023-05-18T14:08:08.458Z,14.50
2023-05-18T14:10:36.624Z,14.60
2023-05-18T14:13:06.828Z,14.60
2023-05-18T14:15:37.361Z,14.60
2023-05-18T14:18:06.217Z,14.70
2023-05-18T14:20:36.501Z,14.80
2023-05-18T14:23:13.256Z,14.90
2023-05-18T14:25:43.520Z,14.90
2023-05-18T14:28:14.820Z,14.80
2023-05-18T14:30:44.507Z,14.90
2023-05-18T14:33:12.959Z,14.90
2023-05-18T14:35:41.425Z,14.80
2023-05-18T14:38:13.978Z,14.80
2023-05-18T14:40:41.966Z,14.80
2023-05-18T14:43:09.911Z,14.80
2023-05-18T14:45:37.932Z,14.90
2023-05-18T14:48:10.033Z,15.10
2023-05-18T14:50:45.874Z,15.30
2023-05-18T14:53:13.865Z,15.50
2023-05-18T14:55:43.967Z,15.50
2023-05-18T14:58:14.812Z,15.50
2023-05-18T15:00:43.800Z,15.30
2023-05-18T15:03:28.426Z,15.30
2023-05-18T15:05:56.730Z,15.30
2023-05-18T15:08:26.011Z,15.30
2023-05-18T15:10:55.403Z,15.20
2023-05-18T15:13:23.409Z,15.10
2023-05-18T15:15:51.791Z,15.10
2023-05-18T15:18:25.257Z,15.00
2023-05-18T15:21:07.197Z,14.90
2023-05-18T15:23:36.676Z,14.70
2023-05-18T15:26:06.230Z,14.70
2023-05-18T15:28:36.212Z,14.70
2023-05-18T15:31:07.127Z,14.70
2023-05-18T15:33:42.064Z,14.70
2023-05-18T15:36:10.318Z,14.70
2023-05-18T15:38:40.530Z,14.70
2023-05-18T15:41:08.511Z,14.70
2023-05-18T15:43:39.034Z,14.70
2023-05-18T15:46:12.250Z,14.80
2023-05-18T15:48:41.911Z,14.80
2023-05-18T15:51:10.684Z,14.80
2023-05-18T15:53:38.672Z,14.80
2023-05-18T15:56:07.468Z,14.90
2023-05-18T15:58:38.667Z,15.00
2023-05-18T16:01:07.156Z,15.00
2023-05-18T16:03:37.263Z,15.10
2023-05-18T16:06:07.771Z,15.10
2023-05-18T16:08:35.807Z,15.10
2023-05-18T16:11:05.369Z,15.20
2023-05-18T16:13:33.552Z,15.30
2023-05-18T16:16:01.918Z,15.30
2023-05-18T16:18:29.968Z,15.20
2023-05-18T16:21:01.592Z,15.20
2023-05-18T16:23:30.998Z,15.30
2023-05-18T16:25:59.898Z,15.30
2023-05-18T16:28:28.053Z,15.30
2023-05-18T16:30:56.067Z,15.20
2023-05-18T16:33:27.803Z,15.20
2023-05-18T16:35:58.716Z,15.20
2023-05-18T16:38:26.748Z,15.20
2023-05-18T16:40:56.176Z,15.20
2023-05-18T16:43:25.182Z,15.20
2023-05-18T16:45:54.035Z,15.20
2023-05-18T16:48:21.991Z,15.20
2023-05-18T16:50:49.979Z,15.10
2023-05-18T16:53:17.963Z,15.10
2023-05-18T16:55:46.070Z,15.10
2023-05-18T16:58:16.213Z,15.10
2023-05-18T17:00:44.202Z,15.20
2023-05-18T17:03:13.268Z,15.20
2023-05-18T17:05:41.453Z,15.10
2023-05-18T17:08:11.096Z,15.10
2023-05-18T17:10:39.783Z,15.10
2023-05-18T17:13:08.190Z,15.10
2023-05-18T17:15:38.785Z,15.10
2023-05-18T17:18:06.926Z,15.10
2023-05-18T17:20:34.971Z,15.10
2023-05-18T17:23:03.269Z,15.10
2023-05-18T17:25:31.364Z,15.00
2023-05-18T17:27:59.516Z,15.10
2023-05-18T17:30:27.583Z,15.00
2023-05-18T17:32:58.516Z,15.00
2023-05-18T17:35:26.562Z,15.00
2023-05-18T17:37:55.191Z,15.00
2023-05-18T17:40:23.740Z,15.00
2023-05-18T17:42:51.720Z,15.00
2023-05-18T17:45:22.168Z,15.00
2023-05-18T17:47:54.786Z,15.00
2023-05-18T17:50:25.996Z,15.00
2023-05-18T17:52:56.356Z,15.00
2023-05-18T17:55:24.356Z,15.00
2023-05-18T17:57:53.440Z,15.00
2023-05-18T18:00:22.509Z,14.90
2023-05-18T18:02:50.584Z,14.90
2023-05-18T18:05:23.168Z,14.90
2023-05-18T18:07:59.800Z,14.80
2023-05-18T18:13:14.403Z,14.80
2023-05-18T18:15:43.257Z,14.80
2023-05-18T18:18:11.561Z,14.80
2023-05-18T18:20:40.809Z,14.70
2023-05-18T18:23:11.512Z,14.70
2023-05-18T18:25:39.616Z,14.60
2023-05-18T18:28:14.741Z,14.60
2023-05-18T18:30:44.860Z,14.60
2023-05-18T18:33:16.372Z,14.50
2023-05-18T18:35:44.426Z,14.50
2023-05-18T18:38:15.065Z,14.50
2023-05-18T18:40:45.633Z,14.50
2023-05-18T18:43:13.652Z,14.40
2023-05-18T18:45:41.800Z,14.40
2023-05-18T18:48:09.856Z,14.30
2023-05-18T18:50:38.164Z,14.30
2023-05-18T18:53:07.865Z,14.30
2023-05-18T18:55:38.694Z,14.20
2023-05-18T18:58:08.041Z,14.20
2023-05-18T19:00:36.126Z,14.10
2023-05-18T19:03:04.819Z,14.10
2023-05-18T19:05:34.562Z,14.10
2023-05-18T19:08:05.910Z,14.00
2023-05-18T19:10:43.404Z,14.00
2023-05-18T19:13:15.051Z,13.90
2023-05-18T19:15:43.212Z,13.90
2023-05-18T19:18:11.237Z,13.80
2023-05-18T19:20:40.036Z,13.80
2023-05-18T19:23:08.044Z,13.70
2023-05-18T19:25:37.399Z,13.70
2023-05-18T19:28:05.630Z,13.60
2023-05-18T19:30:35.221Z,13.60
2023-05-18T19:33:04.275Z,13.50
2023-05-18T19:35:33.976Z,13.40
2023-05-18T19:38:07.491Z,13.40
2023-05-18T19:40:39.986Z,13.30
2023-05-18T19:43:09.759Z,13.20
2023-05-18T19:45:39.169Z,13.20
2023-05-18T19:48:09.808Z,13.10
2023-05-18T19:50:37.765Z,13.00
2023-05-18T19:53:05.720Z,12.90
2023-05-18T19:55:33.873Z,12.80
2023-05-18T19:58:05.431Z,12.80
2023-05-18T20:00:34.216Z,12.80
2023-05-18T20:03:03.884Z,12.70
2023-05-18T20:05:32.058Z,12.70
2023-05-18T20:08:02.063Z,12.70
2023-05-18T20:10:32.861Z,12.60
2023-05-18T20:13:09.477Z,12.60
2023-05-18T20:15:41.811Z,12.50
2023-05-18T20:18:09.896Z,12.50
2023-05-18T20:20:38.653Z,12.40
2023-05-18T20:23:10.687Z,12.40
2023-05-18T20:25:46.819Z,12.40
2023-05-18T20:28:16.378Z,12.30
2023-05-18T20:30:45.587Z,12.20
2023-05-18T20:33:17.669Z,12.20
2023-05-18T20:35:48.295Z,12.10
2023-05-18T20:38:16.937Z,12.00
2023-05-18T20:40:45.581Z,12.00
2023-05-18T20:43:18.114Z,12.00
2023-05-18T20:45:49.563Z,11.90
2023-05-18T20:48:26.387Z,11.80
2023-05-18T20:50:54.599Z,11.70
2023-05-18T20:53:33.748Z,11.70
2023-05-18T20:56:05.913Z,11.60
2023-05-18T20:58:35.574Z,11.50
2023-05-18T21:01:07.711Z,11.40
2023-05-18T21:03:35.902Z,11.30
2023-05-18T21:06:06.626Z,11.30
2023-05-18T21:08:34.677Z,11.20
2023-05-18T21:11:02.709Z,11.10
2023-05-18T21:13:32.213Z,11.10
2023-05-18T21:16:02.523Z,11.00
2023-05-18T21:18:37.882Z,11.00
2023-05-18T21:21:06.549Z,11.00
2023-05-18T21:23:35.421Z,10.90
2023-05-18T21:26:03.655Z,10.90
2023-05-18T21:28:31.744Z,10.80
2023-05-18T21:31:01.762Z,10.80
2023-05-18T21:33:31.187Z,10.80
2023-05-18T21:36:00.443Z,10.70
2023-05-18T21:38:28.782Z,10.60
2023-05-18T21:40:57.139Z,10.60
2023-05-18T21:43:27.313Z,10.50
2023-05-18T21:45:55.383Z,10.60
2023-05-18T21:48:25.215Z,10.60
2023-05-18T21:50:56.474Z,10.60
2023-05-18T21:53:24.938Z,10.50
2023-05-18T21:55:52.999Z,10.50
2023-05-18T21:58:21.522Z,10.40
2023-05-18T22:00:49.575Z,10.30
2023-05-18T22:03:17.615Z,10.30
2023-05-18T22:05:47.191Z,10.20
2023-05-18T22:08:15.135Z,10.20
2023-05-18T22:10:43.141Z,10.10
2023-05-18T22:13:11.170Z,10.10
2023-05-18T22:15:40.287Z,10.10
2023-05-18T22:18:10.114Z,10.10
2023-05-18T22:20:39.597Z,10.10
2023-05-18T22:23:11.616Z,10.10
2023-05-18T22:25:39.606Z,10.10
2023-05-18T22:28:07.653Z,10.10
2023-05-18T22:30:35.957Z,10.10
2023-05-18T22:33:04.808Z,10.10
2023-05-18T22:35:32.967Z,10.00
2023-05-18T22:38:01.104Z,10.00
2023-05-18T22:40:30.737Z,9.90
2023-05-18T22:42:58.960Z,9.90
2023-05-18T22:45:27.034Z,9.80
2023-05-18T22:47:55.707Z,9.80
2023-05-18T22:50:23.804Z,9.80
2023-05-18T22:52:52.188Z,9.80
2023-05-18T22:55:20.408Z,9.80
2023-05-18T22:57:51.732Z,9.80
2023-05-18T23:00:19.938Z,9.80
2023-05-18T23:02:47.974Z,9.70
2023-05-18T23:05:17.407Z,9.70
2023-05-18T23:07:45.582Z,9.70
2023-05-18T23:10:14.146Z,9.70
2023-05-18T23:12:42.511Z,9.60
2023-05-18T23:15:13.487Z,9.60
2023-05-18T23:17:46.175Z,9.60
2023-05-18T23:20:14.461Z,9.50
2023-05-18T23:22:42.470Z,9.50
2023-05-18T23:25:11.086Z,9.50
2023-05-18T23:27:39.068Z,9.40
2023-05-18T23:30:08.279Z,9.40
2023-05-18T23:32:38.321Z,9.40
2023-05-18T23:35:08.330Z,9.40
2023-05-18T23:37:42.279Z,9.40
2023-05-18T23:40:12.511Z,9.40
2023-05-18T23:42:41.555Z,9.30
2023-05-18T23:45:11.172Z,9.30
2023-05-18T23:47:41.198Z,9.30
2023-05-18T23:50:10.302Z,9.30
2023-05-18T23:52:39.527Z,9.30
2023-05-18T23:55:10.219Z,9.30
2023-05-18T23:57:38.731Z,9.30
